Time;durP1;ratioP1;P1;durP2;ratioP2;P2;SDS_P1;SDS_P2;PMS_P1;PMS_P2;Temp;Humidity;BMP_temperature;BMP_pressure;BME280_temperature;BME280_humidity;BME280_pressure;Samples;Min_cycle;Max_cycle;Signal;HPM_P1;HPM_P2
2023/07/27 00:02:04;;;;;;;6.63;1.90;;;;;;;15.16;80.25;149891.28;4996421;28;20290;-61
2023/07/27 00:04:31;;;;;;;2.23;1.70;;;;;;;15.10;80.69;149875.06;5001074;28;21100;-61
2023/07/27 00:06:59;;;;;;;4.80;1.90;;;;;;;15.13;80.77;149882.56;4999144;28;20599;-61
2023/07/27 00:09:25;;;;;;;3.77;1.80;;;;;;;15.14;81.63;149885.06;5001826;28;20236;-61
2023/07/27 00:11:52;;;;;;;2.63;1.83;;;;;;;15.12;80.47;149880.06;4997767;28;20235;-61
2023/07/27 00:14:19;;;;;;;3.43;1.80;;;;;;;15.12;81.60;149881.31;4997391;28;20745;-62
2023/07/27 00:16:45;;;;;;;4.93;2.03;;;;;;;15.22;82.76;149905.06;4997030;28;20239;-62
2023/07/27 00:19:12;;;;;;;2.03;1.40;;;;;;;15.24;80.45;149908.78;4998730;28;20250;-61
2023/07/27 00:21:38;;;;;;;2.33;1.60;;;;;;;15.33;81.05;149932.53;5001393;28;20227;-61
2023/07/27 00:24:07;;;;;;;3.53;1.83;;;;;;;15.17;81.88;149892.56;4993609;28;20653;-62
2023/07/27 00:26:33;;;;;;;5.17;1.70;;;;;;;15.08;82.31;149870.09;4999442;28;20276;-63
2023/07/27 00:29:00;;;;;;;5.20;1.93;;;;;;;15.19;79.98;149897.56;4995835;28;20277;-61
2023/07/27 00:31:26;;;;;;;3.37;1.97;;;;;;;15.19;80.26;149898.78;4999893;28;20226;-62
2023/07/27 00:33:53;;;;;;;3.00;2.00;;;;;;;15.17;81.33;149893.78;4996909;28;20327;-62
2023/07/27 00:36:20;;;;;;;4.47;1.93;;;;;;;15.20;81.03;149900.06;4999036;28;20251;-63
2023/07/27 00:38:46;;;;;;;6.50;2.03;;;;;;;15.21;79.54;149902.56;4991886;28;20233;-62
2023/07/27 00:41:14;;;;;;;4.63;2.00;;;;;;;15.27;78.62;149917.56;4996928;28;20246;-61
2023/07/27 00:43:41;;;;;;;2.63;1.80;;;;;;;15.26;78.92;149913.78;4989762;28;20279;-62
2023/07/27 00:46:08;;;;;;;6.43;1.87;;;;;;;15.19;80.49;149898.78;4999149;28;20238;-63
2023/07/27 00:48:35;;;;;;;7.77;1.80;;;;;;;15.14;80.54;149886.31;5003632;28;20223;-63
2023/07/27 00:51:02;;;;;;;3.13;2.20;;;;;;;15.13;79.93;149883.81;4991677;28;20377;-63
2023/07/27 00:53:28;;;;;;;4.03;2.17;;;;;;;15.26;80.41;149915.06;5002712;28;20680;-61
2023/07/27 00:55:57;;;;;;;3.23;2.00;;;;;;;15.19;79.81;149897.56;4998649;28;20598;-62
2023/07/27 00:58:26;;;;;;;3.87;1.87;;;;;;;15.24;79.23;149908.78;5016017;28;20321;-62
2023/07/27 01:00:53;;;;;;;4.40;1.83;;;;;;;15.19;80.02;149898.78;5000153;28;20285;-62
2023/07/27 01:03:20;;;;;;;3.80;1.93;;;;;;;15.17;82.00;149893.78;5001018;28;20229;-63
2023/07/27 01:05:49;;;;;;;6.03;1.90;;;;;;;15.21;80.48;149902.56;5002514;28;20222;-62
2023/07/27 01:08:16;;;;;;;2.97;2.20;;;;;;;15.20;81.37;149900.06;5004169;28;20250;-62
2023/07/27 01:10:53;;;;;;;4.77;1.97;;;;;;;15.48;78.99;149967.47;4992409;28;20232;-62
2023/07/27 01:13:26;;;;;;;2.83;1.90;;;;;;;15.33;80.98;149931.28;5004690;28;20227;-62
2023/07/27 01:15:59;;;;;;;2.57;1.70;;;;;;;15.25;80.63;149911.28;5001748;28;20223;-63
2023/07/27 01:18:31;;;;;;;2.20;1.97;;;;;;;15.28;79.79;149920.06;5005529;28;20235;-61
2023/07/27 01:21:08;;;;;;;5.37;1.90;;;;;;;15.29;78.83;149921.28;5017804;28;21566;-62
2023/07/27 01:24:10;;;;;;;2.90;1.80;;;;;;;15.39;79.43;149946.25;5006229;28;20246;-62
2023/07/27 01:27:12;;;;;;;6.47;1.90;;;;;;;15.61;77.87;149999.97;5001453;28;20691;-62
2023/07/27 01:30:00;;;;;;;6.47;2.13;;;;;;;15.83;76.75;150051.22;5001697;28;20231;-63
2023/07/27 01:32:30;;;;;;;4.23;2.10;;;;;;;15.92;75.95;150075.00;5002636;28;20274;-62
2023/07/27 01:35:01;;;;;;;4.07;2.30;;;;;;;16.01;75.74;150095.00;5016426;28;20232;-63
2023/07/27 01:37:30;;;;;;;2.60;1.97;;;;;;;16.09;74.42;150115.00;5002876;28;20242;-63
2023/07/27 01:39:59;;;;;;;2.03;1.83;;;;;;;16.03;77.31;150100.00;5002633;28;20783;-64
2023/07/27 01:42:27;;;;;;;5.83;2.00;;;;;;;16.27;72.56;150157.50;5005399;28;20236;-63
2023/07/27 01:44:55;;;;;;;5.63;2.03;;;;;;;16.16;74.37;150132.50;5000469;28;20714;-62
2023/07/27 01:47:23;;;;;;;2.63;1.90;;;;;;;16.15;73.93;150130.00;5006325;28;20225;-63
2023/07/27 01:49:55;;;;;;;3.70;1.67;;;;;;;16.20;73.71;150141.22;5001367;28;20216;-62
2023/07/27 01:52:23;;;;;;;2.40;1.60;;;;;;;16.29;72.91;150162.50;5019910;28;20588;-62
2023/07/27 01:54:56;;;;;;;3.17;1.60;;;;;;;16.33;72.80;150173.72;5019380;28;20226;-63
2023/07/27 01:57:23;;;;;;;3.97;1.83;;;;;;;16.31;72.88;150167.50;5005861;28;20218;-62
2023/07/27 01:59:54;;;;;;;3.03;1.90;;;;;;;16.29;73.14;150163.72;5020362;28;20226;-62
2023/07/27 02:02:22;;;;;;;5.00;2.03;;;;;;;16.33;72.36;150172.50;5005791;28;20225;-62
2023/07/27 02:04:57;;;;;;;4.50;1.77;;;;;;;16.30;72.64;150166.22;5004450;28;20216;-62
2023/07/27 02:07:24;;;;;;;4.23;1.77;;;;;;;16.25;72.83;150153.72;5005274;28;20254;-62
2023/07/27 02:09:53;;;;;;;4.90;1.93;;;;;;;16.25;73.10;150152.50;5003728;28;20710;-62
2023/07/27 02:12:25;;;;;;;3.13;1.87;;;;;;;16.37;72.83;150182.50;5006861;28;20315;-62
2023/07/27 02:14:58;;;;;;;2.37;1.87;;;;;;;16.38;72.26;150185.00;5005553;28;20219;-62
2023/07/27 02:17:32;;;;;;;3.07;2.00;;;;;;;16.39;72.43;150187.50;5006690;28;20224;-62
2023/07/27 02:20:03;;;;;;;3.93;1.97;;;;;;;16.41;71.04;150191.22;4998192;28;20575;-62
2023/07/27 02:22:31;;;;;;;5.93;1.83;;;;;;;16.43;70.71;150196.22;5005744;28;20228;-62
2023/07/27 02:24:58;;;;;;;2.13;1.40;;;;;;;16.44;70.85;150199.94;5003050;28;20215;-62
2023/07/27 02:27:24;;;;;;;3.80;2.00;;;;;;;16.45;71.35;150201.22;4999237;28;20730;-61
2023/07/27 02:29:53;;;;;;;2.57;2.00;;;;;;;16.41;71.01;150191.22;5018390;28;20224;-62
2023/07/27 02:32:19;;;;;;;3.57;2.30;;;;;;;16.50;70.03;150214.94;5004116;28;20264;-62
2023/07/27 02:35:12;;;;;;;3.40;1.80;;;;;;;16.55;70.94;150224.94;5002256;28;20711;-62
2023/07/27 02:37:40;;;;;;;1.93;1.70;;;;;;;16.55;69.89;150226.22;5003371;28;20795;-62
2023/07/27 02:40:08;;;;;;;4.47;1.73;;;;;;;16.55;70.31;150224.94;5001094;28;20228;-62
2023/07/27 02:42:35;;;;;;;4.10;2.10;;;;;;;16.52;71.31;150219.94;5002628;28;20234;-62
2023/07/27 02:45:02;;;;;;;3.20;1.57;;;;;;;16.55;70.11;150224.94;5002389;28;20319;-62
2023/07/27 02:47:34;;;;;;;3.67;1.90;;;;;;;16.53;71.07;150222.44;5003946;28;20569;-62
2023/07/27 02:50:00;;;;;;;5.57;1.80;;;;;;;16.50;71.06;150213.72;5001374;28;20611;-62
2023/07/27 02:52:28;;;;;;;2.83;1.77;;;;;;;16.57;70.71;150229.94;5004389;28;20263;-62
2023/07/27 02:54:55;;;;;;;5.10;1.60;;;;;;;16.49;70.19;150211.22;5000783;28;20239;-62
2023/07/27 02:57:22;;;;;;;2.00;1.53;;;;;;;16.56;69.73;150228.72;5004153;28;20232;-62
2023/07/27 02:59:57;;;;;;;2.53;1.87;;;;;;;16.68;68.57;150257.47;5016534;28;20307;-62
2023/07/27 03:02:24;;;;;;;2.17;1.83;;;;;;;16.59;68.61;150234.94;5003165;28;20324;-62
2023/07/27 03:04:55;;;;;;;4.20;1.87;;;;;;;16.66;67.20;150253.72;5000304;28;20233;-62
2023/07/27 03:07:22;;;;;;;3.80;1.80;;;;;;;16.67;68.08;150254.97;5003985;28;20237;-63
2023/07/27 03:09:54;;;;;;;2.47;1.70;;;;;;;16.60;68.37;150237.44;5002862;28;20698;-62
2023/07/27 03:12:21;;;;;;;2.53;2.13;;;;;;;16.65;69.05;150249.97;5004991;28;20612;-62
2023/07/27 03:14:53;;;;;;;6.37;1.90;;;;;;;16.53;69.33;150221.22;5016621;28;20230;-62
2023/07/27 03:17:20;;;;;;;4.03;2.00;;;;;;;16.53;69.38;150221.22;5003579;28;20376;-62
2023/07/27 03:19:53;;;;;;;2.80;1.50;;;;;;;16.50;70.31;150213.72;5004971;28;20232;-62
2023/07/27 03:22:19;;;;;;;4.47;2.00;;;;;;;16.53;69.91;150221.22;4992554;28;20317;-62
2023/07/27 03:25:12;;;;;;;3.40;1.67;;;;;;;16.51;69.99;150217.44;5002481;28;20239;-62
2023/07/27 03:27:39;;;;;;;4.83;2.20;;;;;;;16.57;68.75;150229.94;5005789;28;20239;-63
2023/07/27 03:32:53;;;;;;;2.37;1.60;;;;;;;16.58;69.05;150233.72;5045154;23;20244;-62
2023/07/27 03:35:20;;;;;;;6.33;2.00;;;;;;;16.53;70.78;150221.22;4976155;28;20254;-62
2023/07/27 03:37:46;;;;;;;4.80;2.00;;;;;;;16.50;70.05;150213.72;4976266;28;20236;-62
2023/07/27 03:40:14;;;;;;;3.90;1.77;;;;;;;16.52;69.82;150218.72;4973993;28;20235;-62
2023/07/27 03:42:41;;;;;;;4.13;2.00;;;;;;;16.55;70.10;150226.22;4972990;28;20234;-62
2023/07/27 03:45:09;;;;;;;3.83;1.77;;;;;;;16.49;70.18;150212.44;4982411;28;20716;-62
2023/07/27 03:47:35;;;;;;;2.43;1.70;;;;;;;16.43;70.15;150197.44;4972463;28;20233;-62
2023/07/27 03:50:02;;;;;;;6.03;2.00;;;;;;;16.40;70.49;150190.00;4980224;28;20245;-62
2023/07/27 03:52:28;;;;;;;4.40;1.87;;;;;;;16.33;71.92;150172.50;4983567;28;20240;-62
2023/07/27 03:54:55;;;;;;;2.77;1.70;;;;;;;16.29;72.26;150163.72;4964891;28;20234;-62
2023/07/27 03:57:23;;;;;;;6.43;2.30;;;;;;;16.26;72.37;150156.22;4968257;28;20603;-62
2023/07/27 03:59:55;;;;;;;3.73;1.97;;;;;;;16.21;74.42;150145.00;4979402;28;20318;-62
2023/07/27 04:02:27;;;;;;;5.20;2.37;;;;;;;16.14;76.62;150126.22;4974342;28;20716;-62
2023/07/27 04:04:54;;;;;;;2.67;2.10;;;;;;;16.08;75.63;150112.50;4971112;28;20225;-62
2023/07/27 04:07:21;;;;;;;2.90;2.03;;;;;;;16.02;75.69;150098.72;4969916;28;20223;-62
2023/07/27 04:09:53;;;;;;;4.73;2.20;;;;;;;15.97;76.36;150086.22;4977507;28;20221;-62
2023/07/27 04:12:19;;;;;;;3.73;2.07;;;;;;;16.00;77.00;150092.50;4986014;28;20233;-62
2023/07/27 04:14:52;;;;;;;4.33;2.43;;;;;;;15.89;77.21;150067.50;4968945;28;20247;-62
2023/07/27 04:17:18;;;;;;;4.47;2.40;;;;;;;15.80;80.53;150044.97;4970507;28;20222;-62
2023/07/27 04:19:45;;;;;;;5.00;2.20;;;;;;;15.83;80.46;150051.22;4974016;28;20230;-62
2023/07/27 04:22:12;;;;;;;5.87;2.30;;;;;;;15.75;81.34;150033.72;4984430;28;20220;-62
2023/07/27 04:24:40;;;;;;;3.13;2.17;;;;;;;15.72;81.81;150024.97;4975536;28;20715;-62
2023/07/27 04:27:07;;;;;;;3.63;2.03;;;;;;;15.66;82.56;150011.25;4970252;28;20334;-62
2023/07/27 04:29:33;;;;;;;4.17;2.30;;;;;;;15.64;83.06;150006.25;4975715;28;20309;-62
2023/07/27 04:32:01;;;;;;;3.87;2.50;;;;;;;15.63;83.71;150004.97;4976155;28;20244;-62
2023/07/27 04:34:28;;;;;;;5.00;2.30;;;;;;;15.63;82.60;150003.75;4974459;28;20226;-62
2023/07/27 04:36:54;;;;;;;3.90;2.13;;;;;;;15.75;79.10;150032.47;4971140;28;20743;-62
2023/07/27 04:39:21;;;;;;;4.03;2.67;;;;;;;15.84;81.49;150053.72;4976033;28;20617;-61
2023/07/27 04:41:48;;;;;;;2.93;2.13;;;;;;;15.81;82.33;150046.22;4975784;28;20578;-62
2023/07/27 04:44:14;;;;;;;5.43;2.30;;;;;;;15.87;79.45;150061.28;4982930;28;20239;-62
2023/07/27 04:46:41;;;;;;;4.37;2.10;;;;;;;16.03;78.20;150100.00;4979005;28;20225;-62
2023/07/27 04:49:09;;;;;;;6.90;2.50;;;;;;;16.07;79.16;150110.00;4981976;28;20621;-62
2023/07/27 04:51:35;;;;;;;4.27;2.20;;;;;;;16.15;77.54;150128.72;4974450;28;20243;-62
2023/07/27 04:54:02;;;;;;;4.70;2.43;;;;;;;16.22;78.22;150146.22;4981459;28;20242;-62
2023/07/27 04:56:29;;;;;;;4.77;2.23;;;;;;;16.18;78.94;150136.22;4986085;28;20233;-62
2023/07/27 04:58:57;;;;;;;3.13;2.60;;;;;;;16.18;79.57;150137.50;4983205;28;20242;-62
2023/07/27 05:01:23;;;;;;;5.17;2.50;;;;;;;16.15;81.80;150128.72;4972669;28;20713;-62
2023/07/27 05:03:51;;;;;;;6.47;2.73;;;;;;;16.08;84.04;150112.50;4972512;28;20225;-62
2023/07/27 05:06:19;;;;;;;6.07;2.40;;;;;;;16.11;84.39;150120.00;4977278;28;20226;-61
2023/07/27 05:08:45;;;;;;;4.63;2.70;;;;;;;16.03;86.90;150101.22;4972033;28;20580;-61
2023/07/27 05:11:12;;;;;;;4.10;2.67;;;;;;;15.99;85.63;150090.00;4979550;28;20237;-62
2023/07/27 05:13:38;;;;;;;4.53;2.20;;;;;;;16.02;84.67;150097.50;4985973;28;20704;-62
2023/07/27 05:16:05;;;;;;;4.17;2.30;;;;;;;16.07;85.92;150111.22;4971959;28;20546;-62
2023/07/27 05:18:32;;;;;;;2.57;2.07;;;;;;;16.23;79.02;150148.72;4975337;28;20233;-62
2023/07/27 05:20:59;;;;;;;5.17;2.07;;;;;;;16.37;75.58;150182.50;4971435;28;20237;-62
2023/07/27 05:23:27;;;;;;;4.87;2.27;;;;;;;16.54;75.74;150223.72;4974601;28;20887;-62
2023/07/27 05:25:54;;;;;;;3.40;2.00;;;;;;;16.70;74.03;150262.47;4973677;28;20312;-62
2023/07/27 05:28:21;;;;;;;3.67;2.27;;;;;;;16.83;72.08;150294.97;4975495;28;20235;-62
2023/07/27 05:30:47;;;;;;;3.47;2.07;;;;;;;16.92;73.88;150316.25;4976274;28;20218;-62
2023/07/27 05:33:14;;;;;;;3.20;2.20;;;;;;;17.04;74.87;150343.75;4973627;28;20235;-62
2023/07/27 05:35:41;;;;;;;4.73;2.10;;;;;;;17.15;73.05;150371.28;4975050;28;20228;-62
2023/07/27 05:38:08;;;;;;;4.53;2.07;;;;;;;17.18;72.05;150378.78;4976860;28;20214;-62
2023/07/27 05:40:37;;;;;;;3.40;1.77;;;;;;;17.22;72.86;150387.56;4978307;28;20234;-62
2023/07/27 05:43:04;;;;;;;4.87;2.03;;;;;;;17.22;72.95;150388.78;4967043;28;20243;-62
2023/07/27 05:45:31;;;;;;;5.73;1.80;;;;;;;17.17;72.07;150376.28;4973413;28;20284;-62
2023/07/27 05:47:58;;;;;;;4.07;1.90;;;;;;;17.18;73.96;150378.78;4970466;28;20237;-62
2023/07/27 05:50:26;;;;;;;6.70;2.73;;;;;;;17.13;74.34;150365.06;4983339;28;20237;-62
2023/07/27 05:52:52;;;;;;;3.50;1.80;;;;;;;17.19;74.70;150380.06;4969104;28;20241;-62
2023/07/27 05:55:19;;;;;;;7.27;2.23;;;;;;;17.23;75.51;150390.06;4975379;28;20713;-62
2023/07/27 05:57:47;;;;;;;4.20;1.80;;;;;;;17.24;77.55;150393.78;4973465;28;20884;-62
2023/07/27 06:00:14;;;;;;;3.17;2.03;;;;;;;17.36;77.06;150421.31;4978073;28;20234;-62
2023/07/27 06:02:40;;;;;;;6.50;1.97;;;;;;;17.45;75.97;150443.81;4983382;28;20745;-62
2023/07/27 06:05:08;;;;;;;5.03;2.53;;;;;;;17.38;76.47;150427.59;4969202;28;20651;-62
2023/07/27 06:07:34;;;;;;;5.27;2.07;;;;;;;17.43;76.55;150438.81;4974880;28;20239;-62
2023/07/27 06:10:01;;;;;;;3.77;1.80;;;;;;;17.55;74.30;150468.84;4975176;28;20236;-63
2023/07/27 06:12:28;;;;;;;3.57;2.07;;;;;;;17.71;72.39;150506.38;4972722;28;20252;-62
2023/07/27 06:14:55;;;;;;;3.67;1.80;;;;;;;17.73;72.43;150511.38;4969577;28;20225;-63
2023/07/27 06:17:22;;;;;;;5.07;2.00;;;;;;;17.73;72.80;150511.38;4975542;28;20229;-62
2023/07/27 06:19:53;;;;;;;5.93;1.83;;;;;;;17.58;72.59;150475.06;4970199;28;20230;-61
2023/07/27 06:22:19;;;;;;;3.03;1.73;;;;;;;17.56;71.05;150471.34;4975240;28;20233;-62
2023/07/27 06:25:11;;;;;;;3.53;1.87;;;;;;;17.65;71.19;150491.38;4970795;28;20236;-62
2023/07/27 06:27:38;;;;;;;3.77;2.00;;;;;;;17.65;69.47;150491.38;4976144;28;20221;-62
2023/07/27 06:30:08;;;;;;;4.67;1.60;;;;;;;17.73;71.88;150511.38;4971094;28;20230;-62
2023/07/27 06:32:35;;;;;;;3.67;1.80;;;;;;;17.66;69.13;150495.09;4972238;28;20309;-62
2023/07/27 06:35:01;;;;;;;4.63;2.10;;;;;;;17.69;70.81;150502.59;4971637;28;20245;-62
2023/07/27 06:37:28;;;;;;;3.97;2.10;;;;;;;17.74;69.70;150513.88;4974454;28;20241;-62
2023/07/27 06:39:55;;;;;;;6.10;2.10;;;;;;;17.87;69.62;150543.91;4971150;28;20336;-62
2023/07/27 06:42:22;;;;;;;3.47;1.50;;;;;;;17.90;67.54;150552.66;4971314;28;20253;-63
2023/07/27 06:44:53;;;;;;;7.10;1.60;;;;;;;17.94;67.59;150562.66;4971580;28;20577;-62
2023/07/27 06:47:21;;;;;;;2.40;1.60;;;;;;;17.98;67.87;150572.66;4974777;28;20226;-62
2023/07/27 06:49:53;;;;;;;3.17;1.50;;;;;;;18.09;67.79;150598.97;4972160;28;20288;-62
2023/07/27 06:52:19;;;;;;;3.63;1.60;;;;;;;18.22;66.89;150629.00;4972768;28;20246;-62
2023/07/27 06:54:50;;;;;;;3.33;1.40;;;;;;;18.31;65.84;150650.31;4970184;28;20276;-62
2023/07/27 06:57:17;;;;;;;3.93;1.57;;;;;;;18.44;64.82;150684.06;4973221;28;20239;-62
2023/07/27 06:59:44;;;;;;;3.50;1.40;;;;;;;18.58;65.96;150716.63;4972360;28;20242;-62
2023/07/27 07:02:11;;;;;;;1.50;1.20;;;;;;;18.66;65.05;150735.38;4973663;28;20232;-62
2023/07/27 07:04:38;;;;;;;2.27;1.50;;;;;;;18.71;64.97;150747.88;4976719;28;20316;-62
2023/07/27 07:07:07;;;;;;;3.10;1.20;;;;;;;18.64;64.62;150731.63;4967406;28;20285;-62
2023/07/27 07:09:35;;;;;;;4.23;1.60;;;;;;;18.58;64.68;150717.84;4974934;28;20223;-63
2023/07/27 07:12:02;;;;;;;2.77;1.30;;;;;;;18.99;63.15;150815.53;4971948;28;20710;-61
2023/07/27 07:14:28;;;;;;;7.20;1.40;;;;;;;19.12;62.94;150846.81;4973543;28;20276;-62
2023/07/27 07:16:55;;;;;;;2.53;1.50;;;;;;;19.05;62.71;150830.56;4979837;28;20992;-62
2023/07/27 07:19:22;;;;;;;4.23;1.53;;;;;;;18.97;62.52;150810.53;4976980;28;20233;-62
2023/07/27 07:21:49;;;;;;;2.70;1.30;;;;;;;19.05;61.84;150829.34;4968242;28;20227;-62
2023/07/27 07:24:16;;;;;;;3.03;1.20;;;;;;;18.83;64.06;150777.94;4977223;28;20233;-62
2023/07/27 07:26:43;;;;;;;3.07;1.20;;;;;;;18.83;63.23;150777.94;4971259;28;20733;-62
2023/07/27 07:29:10;;;;;;;5.80;1.53;;;;;;;19.02;62.58;150823.06;4970957;28;20299;-62
2023/07/27 07:31:36;;;;;;;2.67;1.30;;;;;;;19.06;61.85;150833.06;4975078;28;20234;-62
2023/07/27 07:34:03;;;;;;;3.20;1.43;;;;;;;18.92;62.63;150799.25;4971517;28;20253;-63
2023/07/27 07:36:29;;;;;;;3.17;1.40;;;;;;;19.01;63.30;150821.81;4974368;28;20232;-63
2023/07/27 07:38:57;;;;;;;3.63;1.33;;;;;;;18.86;62.10;150785.44;4979027;28;20610;-62
2023/07/27 07:41:24;;;;;;;5.17;1.37;;;;;;;18.92;62.39;150799.25;4967429;28;20245;-62
2023/07/27 07:43:51;;;;;;;4.43;1.10;;;;;;;18.57;62.37;150714.13;4977736;28;20230;-62
2023/07/27 07:46:18;;;;;;;6.23;1.20;;;;;;;18.76;63.22;150759.19;4973188;28;20230;-62
2023/07/27 07:48:44;;;;;;;1.40;1.17;;;;;;;18.80;63.75;150769.19;4969753;28;21337;-62
2023/07/27 07:51:11;;;;;;;5.80;1.40;;;;;;;18.71;64.09;150749.16;4969378;28;20727;-62
2023/07/27 07:53:37;;;;;;;4.33;1.60;;;;;;;18.59;64.47;150720.34;4972253;28;20213;-61
2023/07/27 07:56:12;;;;;;;2.83;1.27;;;;;;;18.51;64.72;150699.09;4969510;28;21069;-61
2023/07/27 07:58:39;;;;;;;2.93;1.43;;;;;;;18.55;64.39;150709.09;4974777;28;20630;-61
2023/07/27 08:01:06;;;;;;;2.17;1.40;;;;;;;18.50;64.75;150697.88;4967330;28;20238;-62
2023/07/27 08:03:32;;;;;;;4.23;1.73;;;;;;;18.65;62.97;150734.13;4980566;28;20742;-62
2023/07/27 08:05:59;;;;;;;3.00;1.50;;;;;;;18.78;63.78;150764.19;4968077;28;20776;-61
2023/07/27 08:08:26;;;;;;;3.77;1.70;;;;;;;18.94;63.07;150802.97;4974679;28;20234;-61
2023/07/27 08:10:52;;;;;;;4.73;1.50;;;;;;;18.92;63.15;150797.97;4973355;28;20276;-61
2023/07/27 08:13:20;;;;;;;5.37;1.60;;;;;;;18.95;62.14;150806.75;4973414;28;20234;-61
2023/07/27 08:15:51;;;;;;;4.37;1.50;;;;;;;19.03;62.28;150826.84;4964506;28;20224;-61
2023/07/27 08:18:18;;;;;;;2.13;1.30;;;;;;;18.91;62.04;150795.47;4967718;28;20242;-61
2023/07/27 08:20:45;;;;;;;2.70;1.60;;;;;;;18.88;63.07;150790.44;4971059;28;20901;-61
2023/07/27 08:23:11;;;;;;;4.73;1.57;;;;;;;18.99;63.28;150816.81;4977127;28;20229;-61
2023/07/27 08:25:38;;;;;;;3.00;1.60;;;;;;;18.94;62.49;150804.25;4980917;28;20229;-61
2023/07/27 08:28:05;;;;;;;18.00;2.50;;;;;;;19.03;62.22;150826.84;4965887;28;20245;-62
2023/07/27 08:30:33;;;;;;;2.97;1.60;;;;;;;19.17;61.50;150859.34;4977310;28;20249;-62
2023/07/27 08:33:00;;;;;;;3.47;1.30;;;;;;;19.30;64.54;150890.66;4969310;28;20250;-62
2023/07/27 08:35:26;;;;;;;2.67;1.30;;;;;;;19.19;61.37;150864.34;4974036;28;20238;-62
2023/07/27 08:37:53;;;;;;;5.47;1.60;;;;;;;19.17;60.69;150860.63;4970355;28;20250;-62
2023/07/27 08:40:19;;;;;;;5.03;2.07;;;;;;;18.98;60.70;150813.03;4986829;28;20245;-62
2023/07/27 08:42:46;;;;;;;3.17;1.47;;;;;;;18.92;60.17;150797.97;4970060;28;20632;-62
2023/07/27 08:45:15;;;;;;;2.43;1.37;;;;;;;18.87;61.14;150787.94;4969433;28;20239;-63
2023/07/27 08:47:44;;;;;;;4.60;1.70;;;;;;;18.85;59.87;150782.94;4970904;28;20250;-62
2023/07/27 08:50:10;;;;;;;3.33;1.40;;;;;;;18.86;61.50;150785.44;4968391;28;20238;-62
2023/07/27 08:52:37;;;;;;;2.57;1.23;;;;;;;18.97;61.99;150810.53;4973089;28;20232;-62
2023/07/27 08:55:05;;;;;;;4.97;1.50;;;;;;;18.96;60.91;150809.31;4968720;28;20238;-62
2023/07/27 08:57:32;;;;;;;4.43;1.40;;;;;;;19.05;60.00;150830.56;4973838;28;20234;-62
2023/07/27 08:59:58;;;;;;;4.00;1.67;;;;;;;19.00;60.96;150818.03;4964397;28;20619;-62
2023/07/27 09:02:25;;;;;;;5.33;1.40;;;;;;;19.06;59.41;150831.84;4973701;28;20238;-62
2023/07/27 09:04:54;;;;;;;2.77;1.60;;;;;;;19.18;58.78;150863.13;4972927;28;20240;-62
2023/07/27 09:07:21;;;;;;;2.20;1.40;;;;;;;19.24;58.54;150875.63;4971754;28;20217;-63
2023/07/27 09:09:54;;;;;;;5.83;1.57;;;;;;;19.37;58.51;150908.19;4973537;28;20270;-63
2023/07/27 09:12:22;;;;;;;4.27;1.30;;;;;;;19.45;58.60;150926.97;4976487;28;20229;-62
2023/07/27 09:14:53;;;;;;;2.37;1.20;;;;;;;19.66;59.17;150977.06;4974103;28;20649;-62
2023/07/27 09:17:19;;;;;;;3.13;1.30;;;;;;;19.35;56.25;150903.19;4980289;28;20233;-63
2023/07/27 09:19:53;;;;;;;2.67;1.53;;;;;;;19.45;57.52;150928.25;4969565;28;20238;-62
2023/07/27 09:22:21;;;;;;;4.70;1.40;;;;;;;19.43;58.62;150921.94;4973328;28;20239;-62
2023/07/27 09:24:58;;;;;;;2.17;1.20;;;;;;;19.64;58.94;150972.06;4984553;28;20229;-63
2023/07/27 09:27:24;;;;;;;4.00;1.80;;;;;;;19.72;55.43;150992.09;4975448;28;20691;-62
2023/07/27 09:29:58;;;;;;;4.93;1.67;;;;;;;19.64;55.99;150972.06;4972669;28;20238;-62
2023/07/27 09:32:24;;;;;;;3.07;1.37;;;;;;;19.76;57.47;151003.34;4970886;28;20259;-63
2023/07/27 09:34:56;;;;;;;1.83;1.03;;;;;;;19.77;56.63;151005.84;4976787;28;20298;-63
2023/07/27 09:37:24;;;;;;;2.43;1.40;;;;;;;19.90;57.41;151037.22;4973941;28;20241;-63
2023/07/27 09:40:07;;;;;;;6.03;1.57;;;;;;;20.08;56.48;151079.81;4971502;28;20239;-63
2023/07/27 09:42:34;;;;;;;2.83;1.50;;;;;;;20.26;56.82;151123.66;4972308;28;20763;-63
2023/07/27 09:45:01;;;;;;;4.20;1.40;;;;;;;20.46;55.87;151172.50;4973750;28;20242;-62
2023/07/27 09:47:31;;;;;;;5.83;1.70;;;;;;;20.48;56.03;151177.50;4976960;28;20246;-62
2023/07/27 09:49:59;;;;;;;3.03;1.57;;;;;;;20.70;55.36;151228.88;4988859;28;20251;-62
2023/07/27 09:52:27;;;;;;;2.53;1.43;;;;;;;20.77;53.09;151247.72;4970281;28;20271;-62
2023/07/27 09:54:56;;;;;;;3.57;1.40;;;;;;;21.08;54.47;151322.94;4967572;28;20247;-62
2023/07/27 09:57:24;;;;;;;3.60;1.20;;;;;;;21.32;55.50;151380.56;4975369;28;20237;-62
2023/07/27 09:59:53;;;;;;;4.27;1.40;;;;;;;21.55;52.75;151434.50;4972583;28;20243;-62
2023/07/27 10:02:21;;;;;;;2.47;1.37;;;;;;;21.58;53.23;151443.25;4974613;28;20233;-62
2023/07/27 10:04:53;;;;;;;3.03;1.30;;;;;;;21.39;50.98;151398.09;4970606;28;20234;-62
2023/07/27 10:07:21;;;;;;;4.13;1.70;;;;;;;21.24;51.68;151361.78;4976705;28;20289;-62
2023/07/27 10:10:36;;;;;;;3.73;1.23;;;;;;;21.48;51.66;151419.44;4973763;28;20244;-62
2023/07/27 10:13:07;;;;;;;3.63;1.30;;;;;;;21.81;51.84;151499.69;4972420;28;23092;-59
2023/07/27 10:15:39;;;;;;;4.87;1.40;;;;;;;22.34;51.24;151627.63;4971597;28;20330;-60
2023/07/27 10:18:06;;;;;;;3.13;1.30;;;;;;;22.47;48.71;151657.78;4970973;28;20315;-61
2023/07/27 10:20:34;;;;;;;4.63;1.20;;;;;;;22.91;49.10;151764.38;4976726;28;20223;-60
2023/07/27 10:23:20;;;;;;;2.20;1.10;;;;;;;23.23;47.53;151843.47;4970480;28;20564;-60
2023/07/27 10:26:06;;;;;;;2.40;1.40;;;;;;;23.68;47.34;151951.41;4966960;28;20230;-60
2023/07/27 10:28:37;;;;;;;6.37;1.50;;;;;;;23.34;48.19;151869.78;4975343;28;20775;-61
2023/07/27 10:31:17;;;;;;;3.83;1.20;;;;;;;23.28;47.84;151856.00;4970393;28;20242;-61
2023/07/27 10:33:45;;;;;;;2.87;1.43;;;;;;;23.00;49.33;151786.97;4978970;28;20227;-62
2023/07/27 10:36:12;;;;;;;2.60;1.50;;;;;;;22.04;52.49;151553.63;4968185;28;20683;-62
2023/07/27 10:38:38;;;;;;;3.93;1.50;;;;;;;22.52;51.46;151670.31;4973623;28;20226;-61
2023/07/27 10:41:25;;;;;;;2.40;1.20;;;;;;;22.44;51.91;151651.47;4969971;28;20241;-61
2023/07/27 10:44:16;;;;;;;3.87;1.33;;;;;;;22.72;51.91;151719.22;4975495;28;20742;-61
2023/07/27 10:46:46;;;;;;;2.80;1.40;;;;;;;22.72;51.98;151719.22;4968660;28;20270;-62
2023/07/27 10:49:15;;;;;;;2.10;1.20;;;;;;;23.03;51.87;151794.50;4967112;28;20794;-61
2023/07/27 10:51:42;;;;;;;3.63;1.63;;;;;;;23.15;56.66;151823.34;4976709;28;20234;-62
2023/07/27 10:54:09;;;;;;;2.67;1.40;;;;;;;22.40;53.85;151642.66;4972385;28;20242;-61
2023/07/27 10:56:37;;;;;;;2.37;1.40;;;;;;;22.74;53.63;151723.00;4965648;28;20239;-61
2023/07/27 10:59:04;;;;;;;1.70;1.30;;;;;;;22.84;54.71;151749.34;4968342;28;20233;-62
2023/07/27 11:01:33;;;;;;;2.60;1.40;;;;;;;22.95;55.51;151775.66;4974194;28;20245;-61
2023/07/27 11:04:00;;;;;;;5.30;1.60;;;;;;;22.36;56.11;151631.34;4973980;28;20235;-62
2023/07/27 11:06:28;;;;;;;3.60;1.40;;;;;;;22.39;56.04;151638.88;4971295;28;20242;-61
2023/07/27 11:08:54;;;;;;;3.30;1.30;;;;;;;22.50;56.08;151665.28;4975295;28;20230;-61
2023/07/27 11:11:23;;;;;;;3.17;1.43;;;;;;;22.47;57.10;151657.78;4969665;28;20264;-62
2023/07/27 11:13:51;;;;;;;4.13;1.37;;;;;;;22.54;56.96;151676.56;4979411;28;20563;-62
2023/07/27 11:16:18;;;;;;;3.97;1.50;;;;;;;22.83;58.45;151745.53;4965747;28;20244;-62
2023/07/27 11:18:45;;;;;;;1.77;1.40;;;;;;;22.73;58.73;151720.50;4976295;28;20242;-62
2023/07/27 11:21:13;;;;;;;3.27;1.43;;;;;;;22.88;59.68;151756.84;4970349;28;20672;-62
2023/07/27 11:23:44;;;;;;;3.40;1.30;;;;;;;22.98;61.57;151781.94;4980946;28;20704;-62
2023/07/27 11:26:10;;;;;;;2.77;1.13;;;;;;;22.56;63.30;151681.59;4969382;28;20245;-62
2023/07/27 11:28:38;;;;;;;2.53;1.40;;;;;;;21.85;64.20;151507.22;4971263;28;20251;-62
2023/07/27 11:31:07;;;;;;;6.93;1.60;;;;;;;22.01;66.16;151546.13;4972959;28;20248;-61
2023/07/27 11:33:34;;;;;;;1.97;1.40;;;;;;;21.58;69.28;151443.25;4975756;28;20313;-60
2023/07/27 11:36:01;;;;;;;2.97;1.63;;;;;;;22.16;67.08;151583.75;4972094;28;20241;-61